Time;durP1;ratioP1;P1;durP2;ratioP2;P2;SDS_P1;SDS_P2;PMS_P1;PMS_P2;Temp;Humidity;BMP_temperature;BMP_pressure;BME280_temperature;BME280_humidity;BME280_pressure;Samples;Min_cycle;Max_cycle;Signal;HPM_P1;HPM_P2
2022/01/19 07:58:51;;;;;;;29.40;22.42;;;;;;;2.50;94.05;102510.03;5316890;27;20343;-69
2022/01/19 08:01:23;;;;;;;29.70;22.17;;;;;;;2.49;93.60;102505.63;5293357;28;20020;-69
2022/01/19 08:03:54;;;;;;;34.03;22.75;;;;;;;2.54;94.48;102505.03;5286638;28;20071;-71
2022/01/19 08:06:26;;;;;;;32.60;24.25;;;;;;;2.60;94.80;102502.34;5279517;28;20051;-71
2022/01/19 08:08:58;;;;;;;30.20;22.80;;;;;;;2.67;94.00;102494.19;5277518;28;20123;-70
2022/01/19 08:11:29;;;;;;;28.75;21.73;;;;;;;2.73;94.21;102495.28;5277649;28;20028;-70
2022/01/19 08:14:00;;;;;;;28.67;21.92;;;;;;;2.73;93.87;102495.28;5283851;28;20527;-71
2022/01/19 08:16:31;;;;;;;25.67;20.38;;;;;;;2.75;93.65;102498.69;5293658;28;20067;-71
2022/01/19 08:19:03;;;;;;;27.35;21.23;;;;;;;2.88;93.19;102497.94;5292327;28;20501;-70
2022/01/19 08:21:34;;;;;;;25.63;20.58;;;;;;;2.87;92.73;102491.63;5299967;28;20028;-71
2022/01/19 08:24:05;;;;;;;25.27;19.38;;;;;;;2.88;92.66;102485.09;5298636;28;20117;-71
2022/01/19 08:26:37;;;;;;;25.38;19.92;;;;;;;2.97;92.94;102478.44;5289924;28;20044;-71
2022/01/19 08:29:09;;;;;;;25.42;19.95;;;;;;;2.98;92.49;102477.38;5278946;28;20029;-70
2022/01/19 08:31:41;;;;;;;26.48;21.05;;;;;;;2.93;92.32;102479.03;5279640;28;20044;-70
2022/01/19 08:34:12;;;;;;;23.35;19.63;;;;;;;3.04;92.93;102472.97;5278154;28;20024;-70
2022/01/19 08:36:44;;;;;;;24.48;20.38;;;;;;;3.08;92.60;102476.19;5279908;28;20162;-70
2022/01/19 08:39:16;;;;;;;24.20;19.80;;;;;;;3.13;92.07;102468.22;5295587;28;20464;-70
2022/01/19 08:41:47;;;;;;;25.35;18.42;;;;;;;3.20;91.93;102469.09;5294935;28;20024;-70
2022/01/19 08:44:18;;;;;;;23.13;18.27;;;;;;;3.26;91.70;102468.28;5289334;28;20472;-71
2022/01/19 08:46:50;;;;;;;22.88;19.58;;;;;;;3.29;91.59;102467.03;5279339;28;20037;-72
2022/01/19 08:49:21;;;;;;;26.27;19.85;;;;;;;3.24;91.65;102464.91;5277901;28;20373;-70
2022/01/19 08:51:52;;;;;;;25.67;18.88;;;;;;;3.26;91.58;102457.31;5285498;28;20035;-71
2022/01/19 08:54:25;;;;;;;22.02;19.55;;;;;;;3.26;91.05;102462.81;5300051;28;20028;-71
2022/01/19 08:56:57;;;;;;;21.17;18.33;;;;;;;3.28;91.43;102454.38;5302492;28;20463;-71
2022/01/19 08:59:29;;;;;;;22.80;18.42;;;;;;;3.31;91.61;102446.59;5307257;28;20024;-69
2022/01/19 09:02:00;;;;;;;23.23;18.50;;;;;;;3.39;91.81;102449.16;5300000;28;20026;-70
2022/01/19 09:04:32;;;;;;;21.00;17.58;;;;;;;3.37;91.33;102448.50;5303150;28;20020;-70
2022/01/19 09:07:03;;;;;;;21.83;17.73;;;;;;;3.44;91.30;102441.19;5300466;28;20127;-71
2022/01/19 09:09:34;;;;;;;25.17;19.80;;;;;;;3.45;91.15;102442.88;5291806;28;20051;-71
2022/01/19 09:12:06;;;;;;;22.75;18.58;;;;;;;3.46;90.89;102441.81;5289891;28;20111;-71
2022/01/19 09:14:38;;;;;;;25.33;19.50;;;;;;;3.55;91.25;102433.41;5305950;28;20046;-70
2022/01/19 09:17:09;;;;;;;22.27;18.90;;;;;;;3.54;90.83;102435.31;5305526;28;20360;-70
2022/01/19 09:19:41;;;;;;;23.10;18.75;;;;;;;3.58;90.95;102435.75;5306283;28;20024;-69
2022/01/19 09:22:12;;;;;;;21.55;17.73;;;;;;;3.61;90.87;102432.63;5300435;28;20521;-70
2022/01/19 09:24:44;;;;;;;22.13;16.75;;;;;;;3.63;91.06;102435.97;5304901;28;20078;-70
2022/01/19 09:27:18;;;;;;;25.20;18.83;;;;;;;3.57;90.42;102436.81;5292683;28;20530;-70
2022/01/19 09:29:49;;;;;;;20.95;17.05;;;;;;;3.58;90.68;102433.00;5279090;28;20119;-70
2022/01/19 09:32:21;;;;;;;26.48;18.67;;;;;;;3.59;91.41;102426.47;5279334;28;20024;-71
2022/01/19 09:34:58;;;;;;;21.55;17.35;;;;;;;3.51;90.65;102418.44;5281269;28;20107;-72
2022/01/19 09:37:29;;;;;;;21.35;17.67;;;;;;;3.56;91.36;102421.41;5283482;28;20043;-72
2022/01/19 09:40:00;;;;;;;22.42;18.58;;;;;;;3.46;91.06;102414.41;5281405;28;20403;-72
2022/01/19 09:42:32;;;;;;;22.40;18.50;;;;;;;3.52;91.93;102414.63;5273687;28;20032;-72
2022/01/19 09:45:03;;;;;;;24.98;19.35;;;;;;;3.58;91.61;102406.44;5279019;28;20029;-71
2022/01/19 09:47:35;;;;;;;22.17;18.55;;;;;;;3.46;91.79;102397.09;5283135;28;20024;-71
2022/01/19 09:50:07;;;;;;;21.60;18.85;;;;;;;3.56;91.79;102386.59;5283122;28;20063;-70
2022/01/19 09:52:39;;;;;;;22.23;17.90;;;;;;;3.59;91.56;102385.31;5271878;28;20044;-71
2022/01/19 09:55:10;;;;;;;25.48;19.15;;;;;;;3.54;91.31;102383.19;5280831;28;20044;-72
2022/01/19 09:57:42;;;;;;;24.45;18.27;;;;;;;3.52;91.90;102378.97;5279487;28;20134;-71
2022/01/19 10:00:13;;;;;;;20.90;17.67;;;;;;;3.54;91.92;102379.59;5274754;28;20020;-71
2022/01/19 10:03:10;;;;;;;23.17;19.23;;;;;;;3.60;91.95;102376.03;5282573;28;20079;-71
2022/01/19 10:05:55;;;;;;;23.42;19.58;;;;;;;3.58;92.12;102367.16;5281983;28;20077;-72
2022/01/19 10:08:29;;;;;;;22.48;18.30;;;;;;;3.62;92.03;102363.81;5270971;28;20036;-71
2022/01/19 10:17:06;;;;;;;23.35;17.85;;;;;;;3.81;91.27;102355.81;5270608;28;20033;-73
2022/01/19 10:19:51;;;;;;;23.23;19.60;;;;;;;3.81;91.57;102362.19;5283077;28;20111;-80
2022/01/19 10:22:27;;;;;;;21.77;17.80;;;;;;;3.86;91.65;102365.16;5283915;28;20464;-75
2022/01/19 10:25:03;;;;;;;19.27;16.48;;;;;;;3.83;91.35;102365.53;5282435;28;20024;-72
2022/01/19 10:27:38;;;;;;;19.50;16.02;;;;;;;3.88;90.99;102356.69;5271420;28;20039;-71
2022/01/19 10:30:09;;;;;;;21.83;18.33;;;;;;;3.87;91.20;102355.00;5275303;28;20032;-72
2022/01/19 10:32:55;;;;;;;19.48;16.00;;;;;;;3.99;91.30;102352.47;5266770;28;20025;-72
2022/01/19 10:35:38;;;;;;;21.15;16.15;;;;;;;3.99;90.75;102344.25;5278831;28;20032;-71
2022/01/19 10:38:32;;;;;;;19.80;16.38;;;;;;;3.95;90.92;102334.75;5281278;28;20024;-72
2022/01/19 10:41:06;;;;;;;22.42;18.30;;;;;;;3.92;90.67;102334.09;5280453;28;20060;-71
2022/01/19 10:43:44;;;;;;;18.20;16.20;;;;;;;4.00;90.63;102321.25;5279336;28;20032;-72
2022/01/19 10:46:15;;;;;;;19.23;16.90;;;;;;;4.01;89.96;102321.00;5272330;28;20475;-72
2022/01/19 10:48:46;;;;;;;18.77;15.55;;;;;;;4.08;90.50;102329.28;5268760;28;20116;-72
2022/01/19 10:51:20;;;;;;;21.02;17.05;;;;;;;3.95;90.02;102310.88;5270046;28;20021;-72
2022/01/19 10:54:16;;;;;;;19.95;17.67;;;;;;;4.09;90.48;102319.97;5279040;28;20036;-73
2022/01/19 10:56:54;;;;;;;20.60;17.95;;;;;;;3.95;90.56;102327.34;5268854;28;20107;-72
2022/01/19 10:59:29;;;;;;;24.73;18.42;;;;;;;4.07;90.74;102330.34;5280579;28;20029;-73
2022/01/19 11:02:03;;;;;;;22.50;18.88;;;;;;;4.09;90.25;102323.56;5275103;28;20906;-73
2022/01/19 11:04:37;;;;;;;21.93;16.87;;;;;;;4.08;90.47;102316.38;5273667;28;20029;-73
2022/01/19 11:07:11;;;;;;;23.55;17.73;;;;;;;4.11;90.08;102306.88;5276734;28;20048;-74
2022/01/19 11:09:56;;;;;;;22.15;19.13;;;;;;;4.08;90.33;102301.81;5277490;28;20035;-71
2022/01/19 11:12:31;;;;;;;22.15;18.55;;;;;;;4.09;90.82;102300.75;5279739;28;20277;-72
2022/01/19 11:15:02;;;;;;;25.17;18.25;;;;;;;4.07;90.58;102300.97;5278152;28;20086;-74
2022/01/19 11:17:34;;;;;;;23.95;18.80;;;;;;;4.06;91.13;102292.94;5265366;28;20068;-73
2022/01/19 11:20:12;;;;;;;24.52;18.95;;;;;;;4.11;90.59;102284.91;5275027;28;20028;-71
2022/01/19 11:22:59;;;;;;;23.13;18.77;;;;;;;4.06;90.28;102266.31;5275250;28;20023;-71
2022/01/19 11:25:45;;;;;;;23.75;19.35;;;;;;;4.07;90.45;102267.19;5272304;28;20099;-75
2022/01/19 11:28:27;;;;;;;22.10;19.03;;;;;;;4.10;91.04;102256.63;5280077;28;20107;-73
2022/01/19 11:31:07;;;;;;;41.10;31.27;;;;;;;4.09;90.65;102262.31;5276478;28;20356;-71
2022/01/19 11:33:44;;;;;;;24.30;20.25;;;;;;;4.03;91.39;102261.25;5265947;28;20036;-74
2022/01/19 11:36:22;;;;;;;23.77;19.55;;;;;;;4.09;90.79;102254.94;5281814;28;20032;-75
2022/01/19 11:39:08;;;;;;;28.92;21.98;;;;;;;4.10;91.33;102240.13;5268791;28;20120;-81
2022/01/19 11:41:41;;;;;;;24.23;19.73;;;;;;;4.09;91.15;102237.59;5268432;28;20028;-77
2022/01/19 11:44:16;;;;;;;27.83;20.80;;;;;;;4.12;91.17;102234.44;5280182;28;20507;-78
2022/01/19 11:46:53;;;;;;;23.15;19.65;;;;;;;4.12;90.65;102221.56;5287432;28;20043;-79
2022/01/19 11:49:49;;;;;;;26.95;20.80;;;;;;;4.10;90.75;102225.56;5282839;28;20464;-79
2022/01/19 11:52:25;;;;;;;24.67;20.20;;;;;;;4.08;90.38;102219.44;5278113;28;20440;-80
2022/01/19 11:55:16;;;;;;;30.42;21.75;;;;;;;4.09;91.05;102218.38;5287017;28;20028;-80
2022/01/19 11:58:09;;;;;;;27.60;21.63;;;;;;;4.02;90.46;102209.31;5273693;28;20144;-78
2022/01/19 12:00:43;;;;;;;24.75;20.52;;;;;;;4.05;91.14;102203.41;5280679;28;20032;-77
2022/01/19 12:03:27;;;;;;;28.33;21.42;;;;;;;4.07;91.00;102207.63;5277691;28;20029;-77
2022/01/19 12:05:59;;;;;;;31.45;22.33;;;;;;;4.00;90.89;102198.53;5277797;28;20024;-77
2022/01/19 12:08:36;;;;;;;28.77;22.05;;;;;;;4.07;90.53;102193.06;5286025;28;20470;-74
2022/01/19 12:11:12;;;;;;;25.40;19.38;;;;;;;4.28;92.26;102181.81;5284002;28;20036;-77
2022/01/19 12:14:06;;;;;;;34.05;24.05;;;;;;;4.11;90.95;102191.56;5276580;28;20025;-75
2022/01/19 12:19:20;;;;;;;32.95;25.20;;;;;;;4.18;91.08;102175.91;5280352;28;20502;-74
2022/01/19 12:22:16;;;;;;;32.75;24.02;;;;;;;4.14;90.84;102167.28;5266586;28;20105;-75
2022/01/19 12:25:17;;;;;;;33.60;27.50;;;;;;;4.19;90.70;102163.84;5269293;28;20033;-75
2022/01/19 12:27:50;;;;;;;33.45;26.17;;;;;;;4.17;90.74;102149.53;5252586;28;20391;-75
2022/01/19 12:30:27;;;;;;;37.80;28.67;;;;;;;4.26;90.34;102147.38;5279809;28;20380;-75
2022/01/19 12:33:03;;;;;;;32.17;26.58;;;;;;;4.21;90.17;102138.94;5273613;28;20039;-75
2022/01/19 12:35:37;;;;;;;33.35;26.42;;;;;;;4.32;90.68;102144.63;5281850;28;20017;-74
2022/01/19 12:38:23;;;;;;;35.85;26.42;;;;;;;4.24;90.42;102149.50;5274081;28;20055;-75
2022/01/19 12:40:57;;;;;;;34.85;27.05;;;;;;;4.27;89.77;102143.56;5280046;28;20201;-75
2022/01/19 12:43:34;;;;;;;34.45;25.92;;;;;;;4.35;91.67;102149.69;5281442;28;20025;-76
2022/01/19 12:46:08;;;;;;;33.92;26.63;;;;;;;4.34;89.73;102134.25;5282387;28;20426;-78
2022/01/19 12:48:48;;;;;;;32.10;26.60;;;;;;;4.38;89.79;102118.19;5272305;28;20468;-78
2022/01/19 12:51:34;;;;;;;36.17;26.85;;;;;;;4.35;89.72;102104.91;5284152;28;20036;-78
2022/01/19 12:54:06;;;;;;;;;;;;;;;4.46;90.10;102100.63;5282552;28;20138;-80
2022/01/19 12:56:38;;;;;;;38.50;27.95;;;;;;;4.43;89.85;102095.56;5283851;28;19925;-78
2022/01/19 12:59:11;;;;;;;33.90;26.40;;;;;;;4.44;89.83;102097.22;5285215;28;20482;-79
2022/01/19 13:01:43;;;;;;;34.20;25.98;;;;;;;4.45;89.51;102093.41;5280950;28;20028;-81
2022/01/19 13:04:26;;;;;;;34.65;26.75;;;;;;;4.50;89.28;102096.34;5276527;28;20021;-80
2022/01/19 13:07:13;;;;;;;31.35;26.10;;;;;;;4.40;89.69;102088.59;5271877;28;20513;-79
2022/01/19 13:10:38;;;;;;;35.80;28.30;;;;;;;4.45;89.98;102085.19;5279110;28;20028;-80
2022/01/19 13:13:12;;;;;;;36.72;28.00;;;;;;;4.44;89.38;102080.75;5284564;28;20040;-77
2022/01/19 13:15:54;;;;;;;33.60;25.83;;;;;;;4.46;89.25;102084.13;5279589;28;20099;-76
2022/01/19 13:18:29;;;;;;;33.05;26.67;;;;;;;4.33;89.93;102074.88;5275564;28;20446;-78
2022/01/19 13:21:20;;;;;;;34.78;28.63;;;;;;;4.51;89.99;102076.06;5285173;28;20028;-76
2022/01/19 13:24:15;;;;;;;35.42;27.48;;;;;;;4.48;89.99;102071.03;5266186;28;20040;-74
2022/01/19 13:27:00;;;;;;;36.33;28.05;;;;;;;4.48;89.55;102060.03;5269197;28;20029;-75
2022/01/19 13:29:38;;;;;;;37.08;26.90;;;;;;;4.52;89.48;102058.53;5273076;28;20023;-74
2022/01/19 13:32:15;;;;;;;35.65;26.38;;;;;;;4.58;89.27;102044.75;5280153;28;20021;-74
2022/01/19 13:35:02;;;;;;;33.97;27.33;;;;;;;4.64;89.13;102048.53;5284876;28;20040;-76
2022/01/19 13:37:46;;;;;;;32.80;26.40;;;;;;;4.62;89.13;102047.88;5283462;28;20103;-76
2022/01/19 13:40:30;;;;;;;34.92;28.60;;;;;;;4.62;89.52;102050.63;5275307;28;20032;-76
2022/01/19 13:43:04;;;;;;;33.28;26.00;;;;;;;4.64;89.36;102040.28;5279553;28;20051;-77
2022/01/19 13:48:28;;;;;;;33.55;27.13;;;;;;;4.52;89.14;102033.78;5281090;28;20024;-75
2022/01/19 13:51:03;;;;;;;37.80;26.10;;;;;;;4.47;89.93;102022.63;5283810;28;20024;-77
2022/01/19 13:53:39;;;;;;;34.80;25.48;;;;;;;4.52;89.61;102022.81;5264374;28;20121;-76
2022/01/19 13:56:20;;;;;;;33.63;26.05;;;;;;;4.54;89.34;102015.19;5272718;28;20454;-76
2022/01/19 13:59:07;;;;;;;37.92;26.98;;;;;;;4.51;89.51;102000.00;5281385;28;20040;-76
2022/01/19 14:01:40;;;;;;;33.50;26.05;;;;;;;4.49;89.26;102002.09;5279100;28;20387;-77
2022/01/19 14:04:12;;;;;;;36.20;27.00;;;;;;;4.49;89.96;102006.75;5279473;28;20114;-75
2022/01/19 14:06:45;;;;;;;34.83;27.67;;;;;;;4.50;90.19;102002.94;5277010;28;20052;-77
2022/01/19 14:09:23;;;;;;;31.88;24.80;;;;;;;4.49;90.22;102013.09;5282671;28;20185;-74
2022/01/19 14:11:59;;;;;;;34.85;27.15;;;;;;;4.48;89.85;101999.59;5272868;28;20431;-73
2022/01/19 14:14:36;;;;;;;32.42;25.08;;;;;;;4.55;90.41;102001.25;5276702;28;20391;-78
2022/01/19 14:17:11;;;;;;;34.15;26.15;;;;;;;4.51;90.39;101977.19;5285291;28;20025;-79
2022/01/19 14:19:44;;;;;;;37.10;29.02;;;;;;;4.50;90.45;101970.84;5284311;28;20056;-78
2022/01/19 14:22:21;;;;;;;34.40;26.83;;;;;;;4.58;90.49;101969.72;5289050;28;20039;-81
2022/01/19 14:25:04;;;;;;;39.13;27.10;;;;;;;4.58;90.68;101978.81;5288531;28;20024;-81
2022/01/19 14:27:37;;;;;;;35.85;26.73;;;;;;;4.57;91.21;101981.78;5271046;28;20033;-75
2022/01/19 14:30:10;;;;;;;31.05;25.42;;;;;;;4.60;91.05;101988.72;5283366;28;20029;-77
2022/01/19 14:32:56;;;;;;;34.70;26.63;;;;;;;4.63;90.96;101991.88;5272446;28;20036;-75
2022/01/19 14:35:51;;;;;;;40.38;26.88;;;;;;;4.61;90.90;101980.28;5283094;28;20115;-77
2022/01/19 14:38:22;;;;;;;35.72;27.40;;;;;;;4.64;90.53;101974.31;5278568;28;20115;-75
2022/01/19 14:41:03;;;;;;;35.55;24.83;;;;;;;4.65;90.57;101983.41;5281554;28;20104;-75
2022/01/19 14:43:45;;;;;;;42.92;27.80;;;;;;;4.63;91.07;101969.91;5284113;28;20032;-76
2022/01/19 14:46:25;;;;;;;33.28;25.10;;;;;;;4.59;90.59;101957.66;5273874;28;20063;-75
2022/01/19 14:48:57;;;;;;;35.42;25.98;;;;;;;4.53;91.00;101958.56;5269185;28;20028;-73
2022/01/19 14:51:31;;;;;;;44.28;33.70;;;;;;;4.63;91.08;101947.94;5282118;28;20107;-76
2022/01/19 14:54:05;;;;;;;33.65;25.17;;;;;;;4.66;90.83;101952.97;5281009;28;20099;-77
2022/01/19 14:56:38;;;;;;;30.40;24.00;;;;;;;4.68;91.55;101944.47;5278909;28;20024;-80
2022/01/19 14:59:15;;;;;;;33.05;24.85;;;;;;;4.86;92.12;101951.94;5278954;28;20032;-81
2022/01/19 15:01:52;;;;;;;31.38;24.58;;;;;;;4.83;91.51;101949.66;5267100;28;20033;-82
2022/01/19 15:04:23;;;;;;;33.35;23.95;;;;;;;5.16;94.17;101946.59;5282983;28;20033;-75
2022/01/19 15:06:59;;;;;;;34.63;24.55;;;;;;;5.21;92.71;101939.34;5281750;28;20078;-77
2022/01/19 15:09:30;;;;;;;33.80;25.88;;;;;;;5.12;91.31;101950.88;5280849;28;20013;-69
2022/01/19 15:12:01;;;;;;;33.85;25.92;;;;;;;5.09;89.23;101943.94;5284232;28;20395;-69
2022/01/19 15:14:33;;;;;;;37.70;26.88;;;;;;;4.95;88.93;101942.34;5279419;28;20460;-69
2022/01/19 15:17:04;;;;;;;33.15;24.73;;;;;;;4.89;89.30;101952.34;5278379;28;20041;-69
2022/01/19 15:19:35;;;;;;;35.03;25.05;;;;;;;4.91;90.29;101949.38;5272020;28;20333;-69
2022/01/19 15:22:07;;;;;;;33.67;26.60;;;;;;;4.91;90.75;101957.59;5279418;28;20108;-69
2022/01/19 15:24:38;;;;;;;36.88;27.05;;;;;;;4.95;91.26;101967.09;5280432;28;20422;-69
2022/01/19 15:27:10;;;;;;;34.42;26.45;;;;;;;4.91;91.15;101965.84;5280325;28;20029;-69
2022/01/19 15:29:41;;;;;;;32.92;27.35;;;;;;;4.85;91.68;101948.38;5280463;28;20036;-71
2022/01/19 15:32:13;;;;;;;39.00;27.50;;;;;;;4.81;91.76;101960.88;5282289;28;20024;-69
2022/01/19 15:34:44;;;;;;;39.15;27.58;;;;;;;4.76;92.95;101953.31;5277084;28;20384;-69
2022/01/19 15:37:16;;;;;;;36.50;25.95;;;;;;;4.81;93.06;101952.66;5280309;28;20032;-68
2022/01/19 15:39:49;;;;;;;38.05;28.25;;;;;;;4.75;93.21;101951.59;5267837;28;20024;-71
2022/01/19 15:42:21;;;;;;;36.20;26.83;;;;;;;4.88;93.63;101950.66;5278300;28;20451;-68
2022/01/19 15:44:52;;;;;;;37.67;27.67;;;;;;;4.79;93.51;101963.84;5281715;28;20037;-68
2022/01/19 15:47:23;;;;;;;39.35;28.73;;;;;;;4.73;93.98;101956.50;5275229;28;20017;-68
2022/01/19 15:49:54;;;;;;;40.10;28.80;;;;;;;4.72;94.56;101962.22;5282037;28;20041;-68
2022/01/19 15:52:26;;;;;;;42.35;29.75;;;;;;;4.74;94.55;101960.94;5270537;28;20021;-68
2022/01/19 15:54:57;;;;;;;43.05;30.05;;;;;;;4.76;95.05;101956.06;5273342;28;20067;-67
2022/01/19 15:57:28;;;;;;;37.72;28.92;;;;;;;4.68;95.70;101956.34;5276320;28;20041;-68
2022/01/19 16:00:00;;;;;;;49.67;31.67;;;;;;;4.75;96.48;101964.50;5282201;28;20029;-68
2022/01/19 16:02:31;;;;;;;40.55;31.02;;;;;;;4.75;95.95;101970.00;5279806;28;20013;-68
2022/01/19 16:05:04;;;;;;;41.35;32.90;;;;;;;4.73;96.59;101967.50;5279423;28;20025;-68
2022/01/19 16:07:35;;;;;;;39.80;31.50;;;;;;;4.66;96.35;101963.97;5281578;28;20325;-71
2022/01/19 16:10:07;;;;;;;42.67;29.85;;;;;;;4.69;96.90;101962.66;5274056;28;20075;-71
2022/01/19 16:12:38;;;;;;;44.95;32.65;;;;;;;4.74;96.79;101960.09;5274827;28;20029;-70
2022/01/19 16:15:09;;;;;;;42.80;32.20;;;;;;;4.74;96.41;101969.19;5279321;28;20100;-70
2022/01/19 16:17:42;;;;;;;41.45;29.92;;;;;;;4.71;96.75;101966.88;5266327;28;20024;-70
2022/01/19 16:20:14;;;;;;;32.47;24.63;;;;;;;5.18;98.56;101967.31;5284485;28;20388;-71
2022/01/19 16:26:09;;;;;;;47.45;31.80;;;;;;;4.77;97.27;101968.72;5198108;28;20046;-71
2022/01/19 16:28:44;;;;;;;45.85;31.80;;;;;;;4.75;97.38;101973.59;5272899;28;20123;-71
2022/01/19 16:31:17;;;;;;;44.47;33.42;;;;;;;4.73;97.71;101966.63;5275482;28;20039;-71
2022/01/19 16:33:48;;;;;;;43.80;32.53;;;;;;;4.83;97.89;101968.91;5284853;28;20410;-71
2022/01/19 16:36:21;;;;;;;43.17;33.38;;;;;;;4.79;97.75;101974.00;5286317;28;20432;-70
2022/01/19 16:38:52;;;;;;;46.33;33.53;;;;;;;4.79;97.96;101966.59;5286204;28;20032;-69
2022/01/19 16:41:25;;;;;;;45.10;32.55;;;;;;;4.80;97.61;101970.19;5268511;28;20091;-70
2022/01/19 16:43:57;;;;;;;45.50;33.97;;;;;;;4.68;98.11;101967.34;5278767;28;20021;-69
2022/01/19 16:46:28;;;;;;;51.78;34.28;;;;;;;4.72;98.86;101968.56;5275754;28;20460;-70
2022/01/19 16:49:05;;;;;;;60.08;43.70;;;;;;;4.76;98.41;101968.97;5284393;28;20044;-70
2022/01/19 16:51:40;;;;;;;46.78;35.80;;;;;;;4.76;98.81;101972.53;5280359;28;20029;-72
2022/01/19 16:54:12;;;;;;;48.60;37.35;;;;;;;4.70;99.23;101967.94;5281485;28;20078;-71
2022/01/19 16:56:43;;;;;;;46.83;34.28;;;;;;;4.76;99.26;101972.53;5272382;28;20037;-71
2022/01/19 16:59:15;;;;;;;50.55;37.72;;;;;;;4.78;99.32;101975.06;5278193;28;20016;-71
2022/01/19 17:01:46;;;;;;;51.75;34.75;;;;;;;4.69;99.44;101971.75;5281542;28;20056;-71
2022/01/19 17:04:18;;;;;;;43.13;35.92;;;;;;;4.82;100.00;101973.56;5281768;28;20024;-71
2022/01/19 17:06:50;;;;;;;50.55;37.70;;;;;;;4.79;99.86;101969.34;5278982;28;20032;-71
2022/01/19 17:09:21;;;;;;;48.65;36.72;;;;;;;4.82;100.00;101967.22;5284877;28;20024;-71
2022/01/19 17:11:58;;;;;;;48.35;36.97;;;;;;;4.79;99.96;101976.75;5285164;28;20024;-72
2022/01/19 17:14:38;;;;;;;45.70;36.47;;;;;;;4.84;100.00;101987.09;5269361;28;20416;-72
2022/01/19 17:17:24;;;;;;;46.83;35.40;;;;;;;4.73;100.00;101989.50;5281612;28;20021;-71
2022/01/19 17:19:55;;;;;;;;;;;;;;;4.84;100.00;101995.34;5278860;28;20024;-71
2022/01/19 17:22:26;;;;;;;47.83;35.10;;;;;;;4.79;100.00;101999.59;5276106;28;19913;-72
2022/01/19 17:24:58;;;;;;;48.92;37.38;;;;;;;4.79;100.00;101998.75;5281787;28;20275;-71
2022/01/19 17:27:29;;;;;;;46.47;35.92;;;;;;;4.75;100.00;102006.56;5266357;28;20031;-70
2022/01/19 17:30:01;;;;;;;47.55;36.75;;;;;;;4.79;100.00;102001.50;5265032;28;20029;-72
